Schedule Details


Flight Number: CTN669
Departure: Cilipi (LDDU) at 21:20
Arrival: Franjo Tudman (LDZA) at 22:15
Route: MADOS L187 VRANA UL187 KOMAR L187 TEBLI

Weather Information
LDDU 170100Z 05007KT CAVOK 05/M02 Q1017
LDZA 170100Z 08004KT 020V160 CAVOK M02/M04 Q1019 NOSIG
Schedule Frequency

Route Map